createdAt,value
2024-02-19T00:01:40.212Z,43.92
2024-02-19T00:04:08.953Z,44.05
2024-02-19T00:06:37.883Z,42.97
2024-02-19T00:09:06.237Z,44.90
2024-02-19T00:11:37.693Z,43.70
2024-02-19T00:14:05.909Z,43.38
2024-02-19T00:16:35.544Z,44.90
2024-02-19T00:19:03.821Z,44.13
2024-02-19T00:21:31.919Z,44.08
2024-02-19T00:24:00.110Z,45.08
2024-02-19T00:26:28.105Z,46.20
2024-02-19T00:28:56.796Z,46.00
2024-02-19T00:31:25.996Z,45.25
2024-02-19T00:33:55.569Z,46.55
2024-02-19T00:36:23.874Z,46.05
2024-02-19T00:38:52.062Z,46.03
2024-02-19T00:41:20.842Z,44.95
2024-02-19T00:43:48.856Z,44.13
2024-02-19T00:46:17.056Z,44.67
2024-02-19T00:48:45.224Z,45.10
2024-02-19T00:51:14.745Z,45.38
2024-02-19T00:53:42.839Z,46.17
2024-02-19T00:56:10.799Z,45.97
2024-02-19T00:58:38.853Z,45.90
2024-02-19T01:01:15.272Z,45.88
2024-02-19T01:03:46.145Z,44.90
2024-02-19T01:06:15.738Z,44.78
2024-02-19T01:08:43.868Z,43.45
2024-02-19T01:11:12.813Z,45.05
2024-02-19T01:13:42.922Z,44.75
2024-02-19T01:16:11.084Z,44.85
2024-02-19T01:18:39.752Z,45.90
2024-02-19T01:21:08.045Z,44.50
2024-02-19T01:23:37.534Z,46.35
2024-02-19T01:26:05.753Z,47.03
2024-02-19T01:28:33.763Z,44.53
2024-02-19T01:31:01.825Z,46.58
2024-02-19T01:33:29.924Z,48.10
2024-02-19T01:35:57.916Z,47.60
2024-02-19T01:38:25.952Z,44.67
2024-02-19T01:40:55.387Z,46.95
2024-02-19T01:43:25.783Z,45.85
2024-02-19T01:45:54.226Z,45.25
2024-02-19T01:48:23.114Z,45.72
2024-02-19T01:50:51.812Z,46.20
2024-02-19T01:53:20.101Z,44.80
2024-02-19T01:55:50.595Z,45.10
2024-02-19T01:58:20.635Z,45.03
2024-02-19T02:00:49.434Z,44.42
2024-02-19T02:03:20.650Z,45.42
2024-02-19T02:05:51.988Z,44.65
2024-02-19T02:08:20.196Z,45.95
2024-02-19T02:10:48.207Z,46.13
2024-02-19T02:13:17.536Z,46.00
2024-02-19T02:15:47.267Z,46.13
2024-02-19T02:18:16.896Z,47.03
2024-02-19T02:20:45.959Z,47.13
2024-02-19T02:23:16.049Z,46.55
2024-02-19T02:25:44.267Z,46.88
2024-02-19T02:28:13.735Z,46.55
2024-02-19T02:30:41.856Z,47.03
2024-02-19T02:33:12.040Z,48.47
2024-02-19T02:35:40.171Z,46.97
2024-02-19T02:38:08.446Z,44.67
2024-02-19T02:40:36.835Z,46.53
2024-02-19T02:43:05.400Z,45.40
2024-02-19T02:45:35.166Z,45.92
2024-02-19T02:48:03.334Z,45.88
2024-02-19T02:50:31.386Z,45.35
2024-02-19T02:52:59.372Z,46.35
2024-02-19T02:55:27.391Z,46.17
2024-02-19T02:57:55.724Z,45.00
2024-02-19T03:00:24.013Z,46.75
2024-02-19T03:02:53.380Z,46.45
2024-02-19T03:05:21.416Z,47.58
2024-02-19T03:07:49.595Z,47.45
2024-02-19T03:10:18.923Z,47.17
2024-02-19T03:12:47.133Z,47.60
2024-02-19T03:15:15.333Z,47.78
2024-02-19T03:17:43.438Z,46.15
2024-02-19T03:20:15.042Z,45.33
2024-02-19T03:22:44.254Z,46.58
2024-02-19T03:25:12.543Z,47.85
2024-02-19T03:27:41.425Z,47.35
2024-02-19T03:30:10.822Z,46.35
2024-02-19T03:32:39.443Z,48.45
2024-02-19T03:35:07.762Z,47.58
2024-02-19T03:37:37.471Z,48.40
2024-02-19T03:40:08.031Z,48.55
2024-02-19T03:42:38.039Z,49.50
2024-02-19T03:45:06.919Z,50.45
2024-02-19T03:47:35.575Z,49.60
2024-02-19T03:50:03.958Z,49.50
2024-02-19T03:52:32.197Z,50.95
2024-02-19T03:55:01.837Z,48.60
2024-02-19T03:57:30.256Z,50.25
2024-02-19T03:59:58.280Z,48.92
2024-02-19T04:02:26.294Z,49.15
2024-02-19T04:04:54.497Z,48.47
2024-02-19T04:07:22.525Z,47.97
2024-02-19T04:09:50.564Z,48.65
2024-02-19T04:12:20.203Z,48.72
2024-02-19T04:14:48.318Z,47.72
2024-02-19T04:17:16.367Z,46.70
2024-02-19T04:19:44.655Z,47.30
2024-02-19T04:22:12.897Z,47.97
2024-02-19T04:24:41.097Z,48.05
2024-02-19T04:27:09.864Z,48.40
2024-02-19T04:29:39.267Z,49.55
2024-02-19T04:32:07.759Z,49.08
2024-02-19T04:34:39.260Z,48.13
2024-02-19T04:37:09.296Z,49.17
2024-02-19T04:39:38.045Z,50.42
2024-02-19T04:42:06.791Z,51.85
2024-02-19T04:44:35.057Z,51.80
2024-02-19T04:47:04.874Z,50.05
2024-02-19T04:49:33.142Z,50.17
2024-02-19T04:52:03.444Z,50.88
2024-02-19T04:54:31.466Z,51.30
2024-02-19T04:56:59.643Z,52.00
2024-02-19T04:59:27.693Z,45.95
2024-02-19T05:01:55.977Z,46.13
2024-02-19T05:04:27.590Z,44.13
2024-02-19T05:06:55.843Z,45.70
2024-02-19T05:09:23.984Z,45.28
2024-02-19T05:11:52.002Z,44.30
2024-02-19T05:14:20.309Z,44.78
2024-02-19T05:16:48.393Z,43.85
2024-02-19T05:19:16.534Z,44.88
2024-02-19T05:21:46.058Z,43.97
2024-02-19T05:24:15.084Z,43.75
2024-02-19T05:26:43.060Z,43.00
2024-02-19T05:29:11.234Z,43.78
2024-02-19T05:31:40.931Z,42.55
2024-02-19T05:34:09.702Z,44.22
2024-02-19T05:36:37.883Z,44.63
2024-02-19T05:39:11.547Z,44.33
2024-02-19T05:41:40.087Z,42.42
2024-02-19T05:44:08.165Z,44.22
2024-02-19T05:46:36.890Z,43.72
2024-02-19T05:49:05.121Z,44.50
2024-02-19T05:51:33.257Z,45.45
2024-02-19T05:54:01.257Z,46.58
2024-02-19T05:56:30.973Z,45.03
2024-02-19T05:58:59.098Z,46.33
2024-02-19T06:01:27.492Z,44.30
2024-02-19T06:03:55.657Z,47.00
2024-02-19T06:06:23.903Z,44.92
2024-02-19T06:08:52.085Z,42.28
2024-02-19T06:11:22.139Z,43.35
2024-02-19T06:13:54.939Z,43.78
2024-02-19T06:16:31.119Z,43.78
2024-02-19T06:19:02.542Z,45.17
2024-02-19T06:21:30.659Z,44.92
2024-02-19T06:23:58.828Z,43.75
2024-02-19T06:26:27.702Z,41.92
2024-02-19T06:28:57.307Z,42.72
2024-02-19T06:31:28.691Z,41.70
2024-02-19T06:33:57.462Z,44.65
2024-02-19T06:36:25.647Z,42.97
2024-02-19T06:38:53.651Z,42.25
2024-02-19T06:41:21.684Z,42.45
2024-02-19T06:43:49.946Z,43.45
2024-02-19T06:46:19.514Z,43.33
2024-02-19T06:48:50.378Z,44.83
2024-02-19T06:51:19.685Z,42.95
2024-02-19T06:53:50.164Z,40.67
2024-02-19T06:56:18.216Z,41.53
2024-02-19T06:58:46.289Z,41.03
2024-02-19T07:01:15.859Z,40.08
2024-02-19T07:03:45.894Z,40.28
2024-02-19T07:06:14.008Z,39.28
2024-02-19T07:08:42.196Z,40.00
2024-02-19T07:11:10.458Z,39.03
2024-02-19T07:13:38.869Z,39.55
2024-02-19T07:16:07.413Z,40.00
2024-02-19T07:18:35.873Z,39.67
2024-02-19T07:21:05.591Z,39.72
2024-02-19T07:23:34.164Z,40.33
2024-02-19T07:26:02.551Z,39.80
2024-02-19T07:28:30.841Z,40.15
2024-02-19T07:30:59.082Z,39.97
2024-02-19T07:33:29.874Z,39.53
2024-02-19T07:35:57.921Z,40.92
2024-02-19T07:38:27.468Z,39.42
2024-02-19T07:40:55.501Z,40.05
2024-02-19T07:43:23.758Z,40.47
2024-02-19T07:45:51.838Z,40.35
2024-02-19T07:48:19.967Z,40.13
2024-02-19T07:50:48.262Z,40.22
2024-02-19T07:53:18.002Z,40.22
2024-02-19T07:55:47.921Z,38.38
2024-02-19T07:58:18.307Z,38.83
2024-02-19T08:00:46.654Z,39.38
2024-02-19T08:03:14.814Z,39.83
2024-02-19T08:05:42.849Z,41.63
2024-02-19T08:08:10.936Z,40.67
2024-02-19T08:10:39.277Z,39.70
2024-02-19T08:13:10.169Z,38.53
2024-02-19T08:15:40.293Z,38.65
2024-02-19T08:18:09.195Z,40.60
2024-02-19T08:20:39.162Z,39.35
2024-02-19T08:23:07.573Z,39.17
2024-02-19T08:25:36.165Z,39.65
2024-02-19T08:28:05.028Z,38.88
2024-02-19T08:30:34.733Z,38.75
2024-02-19T08:33:03.068Z,39.20
2024-02-19T08:35:31.698Z,39.97
2024-02-19T08:38:00.705Z,39.92
2024-02-19T08:40:28.864Z,37.72
2024-02-19T08:42:56.954Z,37.92
2024-02-19T08:45:28.902Z,38.25
2024-02-19T08:48:02.078Z,39.03
2024-02-19T08:50:30.136Z,39.25
2024-02-19T08:52:58.134Z,40.85
2024-02-19T08:55:26.267Z,38.95
2024-02-19T08:57:55.906Z,40.28
2024-02-19T09:00:24.865Z,39.45
2024-02-19T09:02:53.495Z,39.65
2024-02-19T09:05:24.226Z,38.70
2024-02-19T09:07:52.276Z,39.03
2024-02-19T09:10:20.463Z,38.72
2024-02-19T09:12:48.469Z,39.38
2024-02-19T09:15:16.557Z,38.17
2024-02-19T09:17:44.574Z,40.15
2024-02-19T09:20:13.454Z,40.53
2024-02-19T09:22:44.415Z,39.40
2024-02-19T09:25:13.802Z,40.78
2024-02-19T09:27:41.963Z,40.83
2024-02-19T09:30:10.843Z,39.35
2024-02-19T09:32:39.195Z,39.00
2024-02-19T09:35:07.986Z,39.25
2024-02-19T09:37:36.197Z,37.92
2024-02-19T09:40:08.067Z,38.72
2024-02-19T09:42:37.660Z,39.65
2024-02-19T09:45:07.649Z,38.00
2024-02-19T09:47:36.031Z,39.33
2024-02-19T09:50:05.462Z,39.42
2024-02-19T09:52:33.732Z,38.35
2024-02-19T09:55:02.206Z,38.55
2024-02-19T09:57:31.778Z,39.40
2024-02-19T10:00:04.919Z,37.63
2024-02-19T10:02:33.033Z,36.97
2024-02-19T10:05:01.713Z,37.85
2024-02-19T10:07:33.820Z,37.42
2024-02-19T10:10:02.772Z,38.50
2024-02-19T10:12:32.469Z,37.85
2024-02-19T10:15:01.901Z,38.35
2024-02-19T10:17:30.876Z,38.53
2024-02-19T10:20:03.241Z,39.22
2024-02-19T10:22:31.402Z,38.83
2024-02-19T10:24:59.551Z,38.60
2024-02-19T10:27:32.763Z,39.17
2024-02-19T10:30:01.940Z,38.42
2024-02-19T10:32:30.378Z,38.45
2024-02-19T10:34:58.791Z,38.70
2024-02-19T10:37:27.053Z,39.38
2024-02-19T10:39:55.233Z,39.30
2024-02-19T10:42:24.314Z,38.70
2024-02-19T10:44:55.089Z,39.97
2024-02-19T10:47:24.950Z,39.25
2024-02-19T10:50:00.120Z,39.67
2024-02-19T10:52:28.906Z,38.25
2024-02-19T10:55:05.931Z,39.38
2024-02-19T10:57:48.555Z,38.50
2024-02-19T11:00:18.784Z,39.63
2024-02-19T11:02:48.445Z,39.88
2024-02-19T11:05:16.523Z,39.95
2024-02-19T11:07:44.753Z,41.42
2024-02-19T11:10:12.896Z,41.05
2024-02-19T11:12:43.136Z,41.28
2024-02-19T11:15:19.619Z,40.08
2024-02-19T11:17:50.090Z,38.58
2024-02-19T11:20:26.927Z,39.65
2024-02-19T11:23:00.123Z,40.60
2024-02-19T11:25:28.523Z,40.60
2024-02-19T11:27:56.709Z,40.55
2024-02-19T11:30:27.050Z,41.25
2024-02-19T11:33:02.190Z,40.95
2024-02-19T11:35:32.724Z,41.92
2024-02-19T11:38:02.554Z,40.35
2024-02-19T11:40:33.751Z,40.38
2024-02-19T11:43:03.152Z,40.90
2024-02-19T11:45:35.308Z,40.75
2024-02-19T11:48:04.059Z,40.88
2024-02-19T11:50:33.292Z,41.22
2024-02-19T11:53:02.037Z,41.00
2024-02-19T11:55:31.568Z,40.28
2024-02-19T11:58:02.271Z,44.20
2024-02-19T12:00:33.731Z,42.20
2024-02-19T12:03:03.907Z,42.55
2024-02-19T12:05:32.376Z,43.05
2024-02-19T12:08:00.779Z,43.17
2024-02-19T12:10:29.234Z,41.33
2024-02-19T12:12:58.854Z,40.60
2024-02-19T12:15:27.109Z,41.70
2024-02-19T12:17:56.895Z,41.65
2024-02-19T12:20:25.123Z,43.50
2024-02-19T12:22:53.385Z,42.45
2024-02-19T12:25:21.955Z,42.65
2024-02-19T12:27:50.119Z,42.42
2024-02-19T12:30:18.529Z,42.55
2024-02-19T12:32:48.571Z,42.50
2024-02-19T12:35:20.893Z,42.35
2024-02-19T12:37:49.210Z,42.38
2024-02-19T12:40:17.645Z,41.55
2024-02-19T12:42:46.429Z,40.13
2024-02-19T12:45:14.816Z,41.25
2024-02-19T12:47:43.003Z,40.95
2024-02-19T12:50:13.098Z,42.10
2024-02-19T12:52:42.828Z,41.15
2024-02-19T12:55:14.861Z,40.33
2024-02-19T12:57:46.704Z,40.33
2024-02-19T13:00:15.373Z,40.05
2024-02-19T13:02:43.524Z,39.85
2024-02-19T13:05:11.710Z,40.20
2024-02-19T13:07:40.796Z,39.83
2024-02-19T13:10:10.977Z,39.60
2024-02-19T13:12:40.453Z,39.78
2024-02-19T13:15:09.367Z,40.08
2024-02-19T13:17:43.107Z,40.38
2024-02-19T13:20:16.106Z,39.58
2024-02-19T13:22:45.220Z,40.72
2024-02-19T13:25:17.349Z,40.97
2024-02-19T13:27:46.322Z,39.42
2024-02-19T13:30:15.246Z,40.25
2024-02-19T13:32:47.763Z,41.45
2024-02-19T13:35:16.400Z,40.05
2024-02-19T13:37:44.536Z,40.63
2024-02-19T13:40:15.123Z,40.10
2024-02-19T13:42:45.063Z,40.72
2024-02-19T13:45:13.369Z,40.92
2024-02-19T13:47:41.771Z,40.28
2024-02-19T13:50:12.374Z,40.70
2024-02-19T13:52:40.695Z,39.25
2024-02-19T13:55:09.848Z,38.25
2024-02-19T13:57:39.610Z,40.47
2024-02-19T14:00:11.987Z,40.95
2024-02-19T14:02:41.885Z,38.28
2024-02-19T14:05:10.593Z,39.28
2024-02-19T14:07:39.580Z,39.25
2024-02-19T14:10:09.220Z,40.10
2024-02-19T14:12:37.669Z,39.88
2024-02-19T14:15:08.252Z,39.90
2024-02-19T14:17:36.920Z,40.55
2024-02-19T14:20:06.850Z,39.10
2024-02-19T14:22:36.487Z,38.35
2024-02-19T14:25:04.982Z,38.70
2024-02-19T14:27:33.589Z,37.58
2024-02-19T14:30:01.924Z,38.28
2024-02-19T14:32:33.901Z,37.63
2024-02-19T14:35:01.965Z,35.28
2024-02-19T14:37:30.281Z,35.63
2024-02-19T14:39:58.493Z,35.15
2024-02-19T14:42:29.108Z,35.47
2024-02-19T14:44:57.275Z,36.13
2024-02-19T14:47:25.505Z,34.67
2024-02-19T14:49:55.200Z,35.53
2024-02-19T14:52:23.885Z,35.60
2024-02-19T14:54:54.736Z,35.67
2024-02-19T14:57:23.133Z,36.30
2024-02-19T14:59:52.608Z,36.80
2024-02-19T15:02:20.933Z,37.00
2024-02-19T15:04:49.184Z,36.22
2024-02-19T15:07:19.170Z,37.25
2024-02-19T15:09:47.369Z,37.13
2024-02-19T15:12:15.416Z,37.50
2024-02-19T15:14:43.615Z,37.72
2024-02-19T15:17:12.276Z,37.47
2024-02-19T15:19:40.680Z,38.22
2024-02-19T15:22:08.877Z,37.17
2024-02-19T15:24:38.714Z,38.05
2024-02-19T15:27:06.963Z,37.92
2024-02-19T15:29:35.051Z,37.67
2024-02-19T15:32:03.503Z,37.95
2024-02-19T15:34:31.903Z,38.65
2024-02-19T15:37:00.099Z,38.67
2024-02-19T15:39:28.151Z,37.83
2024-02-19T15:41:57.472Z,38.38
2024-02-19T15:44:25.654Z,37.97
2024-02-19T15:46:53.894Z,38.35
2024-02-19T15:49:22.531Z,38.13
2024-02-19T15:51:51.016Z,37.65
2024-02-19T15:54:20.405Z,38.17
2024-02-19T15:56:48.687Z,38.53
2024-02-19T15:59:18.422Z,37.15
2024-02-19T16:01:46.886Z,36.13
2024-02-19T16:04:15.814Z,35.55
2024-02-19T16:06:45.092Z,35.15
2024-02-19T16:09:14.559Z,35.75
2024-02-19T16:11:42.682Z,36.15
2024-02-19T16:14:10.745Z,35.38
2024-02-19T16:16:40.513Z,36.55
2024-02-19T16:19:08.683Z,37.90
2024-02-19T16:21:37.804Z,36.67
2024-02-19T16:24:07.211Z,38.03
2024-02-19T16:26:35.315Z,36.47
2024-02-19T16:29:03.628Z,38.63
2024-02-19T16:31:33.103Z,37.55
2024-02-19T16:34:03.049Z,36.25
2024-02-19T16:36:31.349Z,35.92
2024-02-19T16:38:59.468Z,37.30
2024-02-19T16:41:27.561Z,35.95
2024-02-19T16:43:55.622Z,38.40
2024-02-19T16:46:25.234Z,36.55
2024-02-19T16:48:53.669Z,35.70
2024-02-19T16:51:23.477Z,36.72
2024-02-19T16:53:55.405Z,38.50
2024-02-19T16:56:27.827Z,38.85
2024-02-19T16:58:56.170Z,36.55
2024-02-19T17:01:24.410Z,36.28
2024-02-19T17:03:52.655Z,36.58
2024-02-19T17:06:24.390Z,35.92
2024-02-19T17:08:52.535Z,35.78
2024-02-19T17:11:22.693Z,37.28
2024-02-19T17:13:51.154Z,37.10
2024-02-19T17:16:19.875Z,38.30
2024-02-19T17:18:48.059Z,38.35
2024-02-19T17:21:16.075Z,37.85
2024-02-19T17:23:47.970Z,37.47
2024-02-19T17:26:16.248Z,39.03
2024-02-19T17:28:44.320Z,37.38
2024-02-19T17:31:13.010Z,37.38
2024-02-19T17:33:41.399Z,38.60
2024-02-19T17:36:09.876Z,37.97
2024-02-19T17:38:37.931Z,38.33
2024-02-19T17:41:07.756Z,36.38
2024-02-19T17:43:35.806Z,37.10
2024-02-19T17:46:04.776Z,38.92
2024-02-19T17:48:33.434Z,37.55
2024-02-19T17:51:02.482Z,38.65
2024-02-19T17:53:30.600Z,37.55
2024-02-19T17:56:00.579Z,36.92
2024-02-19T17:58:30.216Z,37.17
2024-02-19T18:00:58.394Z,37.55
2024-02-19T18:03:26.949Z,38.72
2024-02-19T18:05:56.082Z,38.25
2024-02-19T18:08:24.152Z,36.35
2024-02-19T18:10:52.285Z,37.05
2024-02-19T18:13:22.578Z,38.33
2024-02-19T18:15:52.358Z,36.70
2024-02-19T18:18:20.454Z,37.42
2024-02-19T18:20:49.451Z,39.90
2024-02-19T18:23:17.581Z,39.42
2024-02-19T18:25:45.643Z,38.13
2024-02-19T18:28:13.695Z,38.65
2024-02-19T18:30:41.775Z,37.53
2024-02-19T18:33:11.515Z,37.13
2024-02-19T18:35:42.054Z,37.17
2024-02-19T18:38:11.456Z,37.45
2024-02-19T18:40:39.555Z,36.92
2024-02-19T18:43:07.669Z,38.20
2024-02-19T18:45:36.508Z,37.75
2024-02-19T18:48:05.058Z,38.15
2024-02-19T18:50:34.661Z,40.38
2024-02-19T18:53:03.782Z,38.85
2024-02-19T18:55:33.038Z,38.08
2024-02-19T18:58:03.202Z,37.42
2024-02-19T19:00:32.129Z,37.88
2024-02-19T19:03:01.086Z,37.50
2024-02-19T19:05:29.218Z,36.88
2024-02-19T19:07:59.227Z,38.22
2024-02-19T19:10:27.241Z,37.05
2024-02-19T19:12:55.422Z,37.95
2024-02-19T19:15:23.795Z,37.72
2024-02-19T19:17:52.440Z,37.90
2024-02-19T19:20:20.735Z,37.80
2024-02-19T19:22:49.029Z,38.40
2024-02-19T19:25:19.661Z,37.60
2024-02-19T19:27:47.752Z,37.35
2024-02-19T19:30:16.136Z,37.90
2024-02-19T19:32:44.139Z,37.60
2024-02-19T19:35:13.906Z,38.47
2024-02-19T19:37:43.086Z,36.88
2024-02-19T19:40:11.789Z,37.92
2024-02-19T19:42:47.048Z,38.55
2024-02-19T19:45:15.629Z,38.22
2024-02-19T19:47:44.096Z,37.10
2024-02-19T19:50:12.338Z,38.30
2024-02-19T19:52:40.434Z,37.38
2024-02-19T19:55:09.356Z,38.75
2024-02-19T19:57:37.618Z,39.05
2024-02-19T20:00:08.823Z,38.05
2024-02-19T20:02:40.084Z,37.92
2024-02-19T20:05:11.708Z,38.08
2024-02-19T20:07:40.020Z,38.65
2024-02-19T20:10:11.512Z,40.90
2024-02-19T20:12:40.905Z,37.75
2024-02-19T20:15:12.108Z,37.58
2024-02-19T20:17:40.203Z,39.30
2024-02-19T20:20:09.619Z,39.15
2024-02-19T20:22:37.834Z,39.92
2024-02-19T20:25:06.577Z,38.88
2024-02-19T20:27:34.785Z,39.08
2024-02-19T20:30:02.912Z,39.45
2024-02-19T20:32:32.381Z,39.45
2024-02-19T20:35:00.560Z,40.80
2024-02-19T20:37:28.660Z,39.38
2024-02-19T20:40:02.136Z,39.53
2024-02-19T20:42:30.537Z,38.88
2024-02-19T20:44:58.542Z,39.53
2024-02-19T20:47:26.636Z,40.17
2024-02-19T20:49:57.559Z,40.45
2024-02-19T20:52:27.248Z,39.47
2024-02-19T20:54:56.260Z,40.10
2024-02-19T20:57:26.053Z,40.03
2024-02-19T20:59:54.287Z,40.78
2024-02-19T21:02:22.376Z,40.45
2024-02-19T21:04:50.913Z,39.45
2024-02-19T21:07:23.321Z,40.30
2024-02-19T21:09:51.504Z,40.58
2024-02-19T21:12:19.589Z,41.67
2024-02-19T21:14:47.691Z,42.85
2024-02-19T21:17:15.646Z,42.25
2024-02-19T21:19:43.788Z,41.10
2024-02-19T21:22:12.438Z,40.53
2024-02-19T21:24:41.988Z,40.22
2024-02-19T21:27:10.171Z,41.03
2024-02-19T21:29:39.036Z,41.75
2024-02-19T21:32:07.960Z,40.95
2024-02-19T21:34:38.243Z,41.13
2024-02-19T21:37:08.054Z,41.25
2024-02-19T21:39:36.368Z,42.80
2024-02-19T21:42:07.222Z,41.50
2024-02-19T21:44:35.391Z,42.90
2024-02-19T21:47:04.351Z,43.03
2024-02-19T21:49:32.428Z,41.40
2024-02-19T21:52:00.740Z,43.08
2024-02-19T21:54:28.749Z,43.35
2024-02-19T21:56:56.902Z,42.55
2024-02-19T21:59:26.566Z,42.05
2024-02-19T22:01:54.692Z,41.53
2024-02-19T22:04:22.876Z,42.63
2024-02-19T22:06:51.028Z,44.60
2024-02-19T22:09:19.091Z,45.65
2024-02-19T22:11:47.218Z,43.33
2024-02-19T22:14:15.729Z,42.60
2024-02-19T22:16:45.265Z,44.80
2024-02-19T22:19:13.532Z,44.05
2024-02-19T22:21:41.664Z,44.10
2024-02-19T22:24:10.142Z,43.80
2024-02-19T22:26:38.124Z,45.55
2024-02-19T22:29:06.135Z,44.58
2024-02-19T22:31:37.110Z,43.08
2024-02-19T22:34:06.834Z,44.97
2024-02-19T22:36:35.074Z,46.15
2024-02-19T22:39:03.778Z,47.25
2024-02-19T22:41:31.908Z,47.67
2024-02-19T22:44:00.709Z,47.30
2024-02-19T22:46:28.902Z,48.08
2024-02-19T22:48:58.042Z,45.28
2024-02-19T22:51:27.638Z,44.47
2024-02-19T22:53:55.950Z,45.33
2024-02-19T22:56:24.119Z,44.72
2024-02-19T22:58:54.977Z,47.38
2024-02-19T23:01:27.693Z,46.35
2024-02-19T23:03:56.365Z,46.85
2024-02-19T23:06:24.437Z,47.45
2024-02-19T23:08:53.893Z,48.15
2024-02-19T23:11:22.070Z,47.38
2024-02-19T23:13:52.061Z,47.35
2024-02-19T23:16:20.163Z,48.03
2024-02-19T23:18:48.194Z,44.88
2024-02-19T23:21:17.478Z,46.88
2024-02-19T23:23:45.684Z,45.58
2024-02-19T23:26:15.524Z,47.00
2024-02-19T23:28:44.076Z,46.65
2024-02-19T23:31:12.201Z,48.42
2024-02-19T23:33:42.268Z,45.60
2024-02-19T23:36:16.867Z,46.35
2024-02-19T23:38:45.423Z,46.40
2024-02-19T23:41:15.134Z,45.72
2024-02-19T23:43:44.899Z,46.45
2024-02-19T23:46:15.012Z,46.25
2024-02-19T23:48:43.690Z,46.97
2024-02-19T23:51:13.145Z,47.30
2024-02-19T23:53:42.730Z,46.75
2024-02-19T23:56:10.742Z,46.88
2024-02-19T23:58:40.361Z,47.75
